createdAt,value
2023-03-21T00:01:56.722Z,2.00
2023-03-21T00:04:33.204Z,2.10
2023-03-21T00:07:07.743Z,1.90
2023-03-21T00:09:37.787Z,1.70
2023-03-21T00:12:10.197Z,2.30
2023-03-21T00:14:39.631Z,2.10
2023-03-21T00:17:11.335Z,2.00
2023-03-21T00:19:41.773Z,1.90
2023-03-21T00:22:11.475Z,2.30
2023-03-21T00:24:41.559Z,2.10
2023-03-21T00:27:38.334Z,2.50
2023-03-21T00:30:00.070Z,1.90
2023-03-21T00:32:30.066Z,2.10
2023-03-21T00:35:16.575Z,1.80
2023-03-21T00:37:48.608Z,1.80
2023-03-21T00:40:29.172Z,1.40
2023-03-21T00:43:00.787Z,1.60
2023-03-21T00:45:30.157Z,2.50
2023-03-21T00:47:59.696Z,1.60
2023-03-21T00:50:29.030Z,1.60
2023-03-21T00:52:59.043Z,1.70
2023-03-21T00:55:28.026Z,1.90
2023-03-21T00:58:02.138Z,2.50
2023-03-21T01:00:33.727Z,2.50
2023-03-21T01:03:23.287Z,2.50
2023-03-21T01:06:07.926Z,2.70
2023-03-21T01:08:51.896Z,8.00
2023-03-21T01:11:26.146Z,2.80
2023-03-21T01:14:07.172Z,3.50
2023-03-21T01:16:41.877Z,2.70
2023-03-21T01:19:25.055Z,2.70
2023-03-21T01:21:58.769Z,2.70
2023-03-21T01:24:28.622Z,2.40
2023-03-21T01:26:57.878Z,2.20
2023-03-21T01:29:27.514Z,2.20
2023-03-21T01:31:57.039Z,1.90
2023-03-21T01:34:26.754Z,2.00
2023-03-21T01:36:56.971Z,2.00
2023-03-21T01:39:26.815Z,2.20
2023-03-21T01:41:56.131Z,1.80
2023-03-21T01:44:25.542Z,1.70
2023-03-21T01:47:12.457Z,2.20
2023-03-21T01:49:46.824Z,3.30
2023-03-21T01:52:35.340Z,3.10
2023-03-21T01:55:12.233Z,2.60
2023-03-21T01:58:02.105Z,2.60
2023-03-21T02:00:34.747Z,2.80
2023-03-21T02:03:15.305Z,2.70
2023-03-21T02:06:03.424Z,2.30
2023-03-21T02:08:39.598Z,2.70
2023-03-21T02:11:10.578Z,2.70
2023-03-21T02:13:39.887Z,2.40
2023-03-21T02:16:30.906Z,2.70
2023-03-21T02:19:29.599Z,3.00
2023-03-21T02:22:38.058Z,3.00
2023-03-21T02:25:39.510Z,2.70
2023-03-21T02:28:25.442Z,2.70
2023-03-21T02:30:54.776Z,2.80
2023-03-21T02:34:02.096Z,3.20
2023-03-21T02:36:49.420Z,2.50
2023-03-21T02:39:24.082Z,2.90
2023-03-21T02:42:08.388Z,2.90
2023-03-21T02:44:46.881Z,2.90
2023-03-21T02:47:26.212Z,2.80
2023-03-21T02:50:16.657Z,2.80
2023-03-21T02:52:48.820Z,3.20
2023-03-21T02:55:22.907Z,3.00
2023-03-21T02:57:54.697Z,2.80
2023-03-21T03:00:27.772Z,2.40
2023-03-21T03:03:07.832Z,2.60
2023-03-21T03:05:49.789Z,2.50
2023-03-21T03:09:01.841Z,2.40
2023-03-21T03:11:38.699Z,2.20
2023-03-21T03:14:46.435Z,2.40
2023-03-21T03:17:18.529Z,2.50
2023-03-21T03:20:06.975Z,2.70
2023-03-21T03:22:47.133Z,2.60
2023-03-21T03:25:32.619Z,2.70
2023-03-21T03:28:10.664Z,3.20
2023-03-21T03:30:46.570Z,3.60
2023-03-21T03:33:23.936Z,4.60
2023-03-21T03:36:04.828Z,3.90
2023-03-21T03:38:37.450Z,4.20
2023-03-21T03:41:15.857Z,4.30
2023-03-21T03:43:53.984Z,4.20
2023-03-21T03:46:29.461Z,3.40
2023-03-21T03:49:06.642Z,3.10
2023-03-21T03:51:47.634Z,3.20
2023-03-21T03:54:22.952Z,2.80
2023-03-21T03:56:52.953Z,3.30
2023-03-21T03:59:25.680Z,5.80
2023-03-21T04:01:54.714Z,5.00
2023-03-21T04:04:29.019Z,8.30
2023-03-21T04:06:59.286Z,3.30
2023-03-21T04:09:43.173Z,5.90
2023-03-21T04:12:14.095Z,4.80
2023-03-21T04:14:46.034Z,3.60
2023-03-21T04:17:17.054Z,2.70
2023-03-21T04:19:46.868Z,3.40
2023-03-21T04:22:16.041Z,3.30
2023-03-21T04:24:45.354Z,3.30
2023-03-21T04:27:15.298Z,3.30
2023-03-21T04:29:44.742Z,3.30
2023-03-21T04:32:25.042Z,3.30
2023-03-21T04:34:54.521Z,3.70
2023-03-21T04:37:28.524Z,3.00
2023-03-21T04:39:57.187Z,10.90
2023-03-21T04:42:26.416Z,3.80
2023-03-21T04:44:55.386Z,2.30
2023-03-21T04:47:24.352Z,2.00
2023-03-21T04:49:54.044Z,1.90
2023-03-21T04:52:25.262Z,2.00
2023-03-21T04:54:54.287Z,2.00
2023-03-21T04:57:22.932Z,2.00
2023-03-21T04:59:51.711Z,2.10
2023-03-21T05:02:20.215Z,2.10
2023-03-21T05:04:49.035Z,2.20
2023-03-21T05:07:17.778Z,2.10
2023-03-21T05:09:46.707Z,3.70
2023-03-21T05:12:16.172Z,2.60
2023-03-21T05:14:45.005Z,2.70
2023-03-21T05:17:15.934Z,5.10
2023-03-21T05:19:45.018Z,7.90
2023-03-21T05:22:14.635Z,4.90
2023-03-21T05:24:43.371Z,3.20
2023-03-21T05:27:14.737Z,3.30
2023-03-21T05:29:43.678Z,3.70
2023-03-21T05:32:12.587Z,3.80
2023-03-21T05:34:41.777Z,4.30
2023-03-21T05:37:10.964Z,4.70
2023-03-21T05:39:40.187Z,10.10
2023-03-21T05:42:10.031Z,3.10
2023-03-21T05:44:40.951Z,9.40
2023-03-21T05:47:10.431Z,2.30
2023-03-21T05:49:40.126Z,3.60
2023-03-21T05:52:09.596Z,3.20
2023-03-21T05:54:38.985Z,2.70
2023-03-21T05:57:08.051Z,4.00
2023-03-21T05:59:37.344Z,11.10
2023-03-21T06:02:06.543Z,23.70
2023-03-21T06:04:35.579Z,5.30
2023-03-21T06:07:04.691Z,2.50
2023-03-21T06:09:34.959Z,2.40
2023-03-21T06:12:04.303Z,264.20
2023-03-21T06:14:33.290Z,240.60
2023-03-21T06:17:01.774Z,78.20
2023-03-21T06:19:30.625Z,43.90
2023-03-21T06:21:59.629Z,11.50
2023-03-21T06:24:29.076Z,8.30
2023-03-21T06:26:57.954Z,71.80
2023-03-21T06:29:26.982Z,23.40
2023-03-21T06:31:56.379Z,22.30
2023-03-21T06:34:27.011Z,17.00
2023-03-21T06:36:55.937Z,4.50
2023-03-21T06:39:25.408Z,3.90
2023-03-21T06:41:54.516Z,4.00
2023-03-21T06:44:25.170Z,3.60
2023-03-21T06:46:54.110Z,3.10
2023-03-21T06:49:23.566Z,2.90
2023-03-21T06:51:52.844Z,3.20
2023-03-21T06:54:22.350Z,2.90
2023-03-21T06:56:51.735Z,2.90
2023-03-21T06:59:21.275Z,6.50
2023-03-21T07:01:50.304Z,3.90
2023-03-21T07:04:19.034Z,3.60
2023-03-21T07:06:48.084Z,3.10
2023-03-21T07:09:18.588Z,3.70
2023-03-21T07:11:48.216Z,4.30
2023-03-21T07:14:17.369Z,3.80
2023-03-21T07:16:46.435Z,3.10
2023-03-21T07:19:16.350Z,3.00
2023-03-21T07:21:45.559Z,3.10
2023-03-21T07:24:15.604Z,3.40
2023-03-21T07:26:44.788Z,3.70
2023-03-21T07:29:13.878Z,3.10
2023-03-21T07:31:43.208Z,3.70
2023-03-21T07:34:12.878Z,3.30
2023-03-21T07:36:41.751Z,3.20
2023-03-21T07:39:10.836Z,4.30
2023-03-21T07:41:39.949Z,4.80
2023-03-21T07:44:09.190Z,3.30
2023-03-21T07:46:37.954Z,4.00
2023-03-21T07:49:09.601Z,4.40
2023-03-21T07:51:38.926Z,3.20
2023-03-21T07:54:08.310Z,3.30
2023-03-21T07:56:38.077Z,3.60
2023-03-21T07:59:07.969Z,3.60
2023-03-21T08:01:37.821Z,3.80
2023-03-21T08:04:07.499Z,2.80
2023-03-21T08:06:37.521Z,3.20
2023-03-21T08:09:08.174Z,3.20
2023-03-21T08:11:37.731Z,3.60
2023-03-21T08:14:07.834Z,2.90
2023-03-21T08:16:36.824Z,2.90
2023-03-21T08:19:05.759Z,3.30
2023-03-21T08:21:34.489Z,2.80
2023-03-21T08:24:03.199Z,3.10
2023-03-21T08:26:32.689Z,2.90
2023-03-21T08:29:01.658Z,2.80
2023-03-21T08:31:30.899Z,2.40
2023-03-21T08:33:59.725Z,3.00
2023-03-21T08:36:28.998Z,3.90
2023-03-21T08:39:05.705Z,3.00
2023-03-21T08:41:37.076Z,2.30
2023-03-21T08:44:07.718Z,2.20
2023-03-21T08:46:37.414Z,2.00
2023-03-21T08:49:06.843Z,2.10
2023-03-21T08:51:38.405Z,2.60
2023-03-21T08:54:08.583Z,3.50
2023-03-21T08:56:37.909Z,8.90
2023-03-21T08:59:07.348Z,3.50
2023-03-21T09:01:36.365Z,1.90
2023-03-21T09:04:08.214Z,1.70
2023-03-21T09:06:38.469Z,2.00
2023-03-21T09:09:09.405Z,3.70
2023-03-21T09:11:39.488Z,2.70
2023-03-21T09:14:12.243Z,2.50
2023-03-21T09:16:41.954Z,1.60
2023-03-21T09:19:12.549Z,1.80
2023-03-21T09:21:41.861Z,1.50
2023-03-21T09:24:13.282Z,4.70
2023-03-21T09:26:44.553Z,1.90
2023-03-21T09:29:13.845Z,2.20
2023-03-21T09:31:44.011Z,4.00
2023-03-21T09:34:16.187Z,1.70
2023-03-21T09:36:45.220Z,1.00
2023-03-21T09:39:14.847Z,1.20
2023-03-21T09:42:01.767Z,1.20
2023-03-21T09:44:44.190Z,1.20
2023-03-21T09:47:29.673Z,1.50
2023-03-21T09:50:14.110Z,1.00
2023-03-21T09:53:11.149Z,1.00
2023-03-21T09:55:41.987Z,1.00
2023-03-21T09:58:33.974Z,1.10
2023-03-21T10:01:27.870Z,1.10
2023-03-21T10:04:01.562Z,1.10
2023-03-21T10:06:32.407Z,1.00
2023-03-21T10:09:07.774Z,1.40
2023-03-21T10:12:15.316Z,1.00
2023-03-21T10:14:58.473Z,1.00
2023-03-21T10:17:33.097Z,1.20
2023-03-21T10:20:13.765Z,1.10
2023-03-21T10:22:46.698Z,1.20
2023-03-21T10:25:19.128Z,1.20
2023-03-21T10:27:51.288Z,1.10
2023-03-21T10:30:36.690Z,1.20
2023-03-21T10:33:13.088Z,1.10
2023-03-21T10:35:47.359Z,1.30
2023-03-21T10:38:20.818Z,1.20
2023-03-21T10:40:51.219Z,1.50
2023-03-21T10:43:35.900Z,1.70
2023-03-21T10:46:28.091Z,2.30
2023-03-21T10:48:57.785Z,1.20
2023-03-21T10:51:32.594Z,3.60
2023-03-21T10:54:07.082Z,1.50
2023-03-21T10:56:44.824Z,1.40
2023-03-21T10:59:21.925Z,1.30
2023-03-21T11:01:56.566Z,1.50
2023-03-21T11:04:30.348Z,1.40
2023-03-21T11:07:04.117Z,1.70
2023-03-21T11:09:46.861Z,2.30
2023-03-21T11:12:34.155Z,1.40
2023-03-21T11:15:15.819Z,1.40
2023-03-21T11:17:46.143Z,1.40
2023-03-21T11:20:22.321Z,1.40
2023-03-21T11:22:56.461Z,1.50
2023-03-21T11:25:44.187Z,1.30
2023-03-21T11:28:17.931Z,1.50
2023-03-21T11:30:55.257Z,1.70
2023-03-21T11:33:29.848Z,2.20
2023-03-21T11:36:28.284Z,1.90
2023-03-21T11:39:00.320Z,1.60
2023-03-21T11:41:32.205Z,1.60
2023-03-21T11:44:03.438Z,1.90
2023-03-21T11:46:40.481Z,1.70
2023-03-21T11:49:11.128Z,2.00
2023-03-21T11:51:50.336Z,3.30
2023-03-21T11:54:49.291Z,3.30
2023-03-21T11:57:28.085Z,1.90
2023-03-21T12:00:23.210Z,2.20
2023-03-21T12:03:10.002Z,1.80
2023-03-21T12:05:52.269Z,2.00
2023-03-21T12:08:30.514Z,2.00
2023-03-21T12:11:12.133Z,1.90
2023-03-21T12:14:23.622Z,1.60
2023-03-21T12:17:25.024Z,2.10
2023-03-21T12:20:06.272Z,2.50
2023-03-21T12:22:42.422Z,4.80
2023-03-21T12:25:30.010Z,12.40
2023-03-21T12:28:32.571Z,2.70
2023-03-21T12:31:23.954Z,2.10
2023-03-21T12:34:39.162Z,5.80
2023-03-21T12:37:29.997Z,6.20
2023-03-21T12:40:37.120Z,2.70
2023-03-21T12:43:25.407Z,2.80
2023-03-21T12:46:01.859Z,1.90
2023-03-21T12:48:47.934Z,2.00
2023-03-21T12:51:23.514Z,2.00
2023-03-21T12:54:24.109Z,3.90
2023-03-21T12:56:53.180Z,3.10
2023-03-21T12:59:38.725Z,2.30
2023-03-21T13:02:39.682Z,2.00
2023-03-21T13:05:29.730Z,2.40
2023-03-21T13:08:08.790Z,1.90
2023-03-21T13:10:42.718Z,2.10
2023-03-21T13:13:14.653Z,2.60
2023-03-21T13:16:19.098Z,2.20
2023-03-21T13:19:27.246Z,2.60
2023-03-21T13:22:00.247Z,1.90
2023-03-21T13:24:33.695Z,2.20
2023-03-21T13:27:08.558Z,2.30
2023-03-21T13:29:50.945Z,2.00
2023-03-21T13:32:32.591Z,1.90
2023-03-21T13:35:14.177Z,1.80
2023-03-21T13:37:53.139Z,7.00
2023-03-21T13:40:29.805Z,7.40
2023-03-21T13:43:04.158Z,2.30
2023-03-21T13:45:35.448Z,5.30
2023-03-21T13:48:26.082Z,1.70
2023-03-21T13:51:04.832Z,9.50
2023-03-21T13:53:38.682Z,2.60
2023-03-21T13:56:12.586Z,4.00
2023-03-21T13:58:44.965Z,4.30
2023-03-21T14:02:03.488Z,2.10
2023-03-21T14:04:41.906Z,4.20
2023-03-21T14:07:17.178Z,3.70
2023-03-21T14:09:53.543Z,4.00
2023-03-21T14:12:29.182Z,3.60
2023-03-21T14:15:16.297Z,6.60
2023-03-21T14:17:55.940Z,8.70
2023-03-21T14:20:34.398Z,6.60
2023-03-21T14:23:07.225Z,5.00
2023-03-21T14:25:46.703Z,5.30
2023-03-21T14:28:21.539Z,6.40
2023-03-21T14:30:55.221Z,1.90
2023-03-21T14:33:38.271Z,3.50
2023-03-21T14:36:14.866Z,2.90
2023-03-21T14:38:45.261Z,2.00
2023-03-21T14:41:27.126Z,4.90
2023-03-21T14:44:44.135Z,9.30
2023-03-21T14:47:30.389Z,5.80
2023-03-21T14:50:01.819Z,3.10
2023-03-21T14:52:34.851Z,2.10
2023-03-21T14:55:14.411Z,2.00
2023-03-21T14:57:43.851Z,2.00
2023-03-21T15:00:24.036Z,2.00
2023-03-21T15:02:55.994Z,1.70
2023-03-21T15:05:38.607Z,2.40
2023-03-21T15:08:23.256Z,9.80
2023-03-21T15:11:07.224Z,10.20
2023-03-21T15:13:55.420Z,6.20
2023-03-21T15:16:25.239Z,5.10
2023-03-21T15:18:54.831Z,11.60
2023-03-21T15:21:43.491Z,3.60
2023-03-21T15:24:23.214Z,2.30
2023-03-21T15:27:05.221Z,2.50
2023-03-21T15:29:37.479Z,2.40
2023-03-21T15:32:18.720Z,3.60
2023-03-21T15:34:48.806Z,7.30
2023-03-21T15:37:29.380Z,4.10
2023-03-21T15:40:17.998Z,2.20
2023-03-21T15:42:47.677Z,2.10
2023-03-21T15:45:25.190Z,3.10
2023-03-21T15:48:17.166Z,3.10
2023-03-21T15:50:56.181Z,3.20
2023-03-21T15:53:26.467Z,3.30
2023-03-21T15:56:02.784Z,4.20
2023-03-21T15:58:38.019Z,5.80
2023-03-21T16:01:13.915Z,7.10
2023-03-21T16:03:49.538Z,6.20
2023-03-21T16:06:22.553Z,4.90
2023-03-21T16:09:07.446Z,3.80
2023-03-21T16:11:49.186Z,3.00
2023-03-21T16:14:20.622Z,3.70
2023-03-21T16:16:51.045Z,3.90
2023-03-21T16:19:21.056Z,3.00
2023-03-21T16:21:50.680Z,3.40
2023-03-21T16:24:20.575Z,2.80
2023-03-21T16:26:54.675Z,3.30
2023-03-21T16:29:25.108Z,5.60
2023-03-21T16:31:55.476Z,8.30
2023-03-21T16:34:24.864Z,6.10
2023-03-21T16:36:55.010Z,4.50
2023-03-21T16:39:27.512Z,2.50
2023-03-21T16:41:57.452Z,2.80
2023-03-21T16:44:26.907Z,2.60
2023-03-21T16:46:55.990Z,3.40
2023-03-21T16:49:27.535Z,3.30
2023-03-21T16:51:57.951Z,4.40
2023-03-21T16:54:27.490Z,5.50
2023-03-21T16:57:00.000Z,9.20
2023-03-21T16:59:29.426Z,8.90
2023-03-21T17:01:59.203Z,14.40
2023-03-21T17:04:29.073Z,7.90
2023-03-21T17:06:59.415Z,6.70
2023-03-21T17:09:30.216Z,5.10
2023-03-21T17:12:00.224Z,2.70
2023-03-21T17:14:29.368Z,2.50
2023-03-21T17:16:59.545Z,2.70
2023-03-21T17:19:30.375Z,3.50
2023-03-21T17:22:00.505Z,5.30
2023-03-21T17:24:29.830Z,7.40
2023-03-21T17:27:01.141Z,5.10
2023-03-21T17:29:31.521Z,4.90
2023-03-21T17:32:00.666Z,4.70
2023-03-21T17:34:30.076Z,5.60
2023-03-21T17:36:59.664Z,4.50
2023-03-21T17:39:29.248Z,5.00
2023-03-21T17:41:58.364Z,3.40
2023-03-21T17:44:28.184Z,3.00
2023-03-21T17:46:57.586Z,2.80
2023-03-21T17:49:27.024Z,2.90
2023-03-21T17:51:56.259Z,5.00
2023-03-21T17:54:25.144Z,13.50
2023-03-21T17:56:56.140Z,13.00
2023-03-21T17:59:26.879Z,15.00
2023-03-21T18:01:57.055Z,11.30
2023-03-21T18:04:27.712Z,6.60
2023-03-21T18:07:01.091Z,5.50
2023-03-21T18:09:30.988Z,6.30
2023-03-21T18:12:02.142Z,6.20
2023-03-21T18:14:34.906Z,5.40
2023-03-21T18:17:04.352Z,5.80
2023-03-21T18:19:34.775Z,4.00
2023-03-21T18:22:05.213Z,4.60
2023-03-21T18:24:36.358Z,3.60
2023-03-21T18:27:07.175Z,3.90
2023-03-21T18:30:22.840Z,4.50
2023-03-21T18:32:28.683Z,5.50
2023-03-21T18:35:02.426Z,6.30
2023-03-21T18:37:32.117Z,5.70
2023-03-21T18:40:02.168Z,4.80
2023-03-21T18:42:31.941Z,9.90
2023-03-21T18:45:04.681Z,6.20
2023-03-21T18:47:34.632Z,7.40
2023-03-21T18:50:14.226Z,6.40
2023-03-21T18:52:44.009Z,4.80
2023-03-21T18:55:15.426Z,7.20
2023-03-21T18:57:45.772Z,14.40
2023-03-21T19:00:18.175Z,10.10
2023-03-21T19:02:50.762Z,6.50
2023-03-21T19:05:23.062Z,4.00
2023-03-21T19:07:53.877Z,2.80
2023-03-21T19:10:24.819Z,2.90
2023-03-21T19:12:55.468Z,3.10
2023-03-21T19:15:25.504Z,2.80
2023-03-21T19:20:47.887Z,3.10
2023-03-21T19:23:21.834Z,3.10
2023-03-21T19:25:51.109Z,3.20
2023-03-21T19:28:20.338Z,3.30
2023-03-21T19:30:50.861Z,3.10
2023-03-21T19:33:21.256Z,4.70
2023-03-21T19:36:08.893Z,5.10
2023-03-21T19:38:40.530Z,5.60
2023-03-21T19:41:09.604Z,6.00
2023-03-21T19:43:40.161Z,5.60
2023-03-21T19:46:11.754Z,5.60
2023-03-21T19:48:44.027Z,10.40
2023-03-21T19:51:27.592Z,14.30
2023-03-21T19:54:03.723Z,15.80
2023-03-21T19:56:34.542Z,14.20
2023-03-21T19:59:05.365Z,10.00
2023-03-21T20:01:35.518Z,6.00
2023-03-21T20:04:05.619Z,5.60
2023-03-21T20:06:36.049Z,6.80
2023-03-21T20:09:49.627Z,5.80
2023-03-21T20:12:01.301Z,4.00
2023-03-21T20:14:30.563Z,4.70
2023-03-21T20:17:00.322Z,7.50
2023-03-21T20:19:29.738Z,12.10
2023-03-21T20:22:02.714Z,6.10
2023-03-21T20:24:31.950Z,4.30
2023-03-21T20:27:01.207Z,6.70
2023-03-21T20:30:08.238Z,8.40
2023-03-21T20:32:21.841Z,6.30
2023-03-21T20:34:59.478Z,5.90
2023-03-21T20:37:35.500Z,6.10
2023-03-21T20:40:10.522Z,9.70
2023-03-21T20:42:43.577Z,14.90
2023-03-21T20:45:16.779Z,12.00
2023-03-21T20:47:47.593Z,5.00
2023-03-21T20:50:22.262Z,3.50
2023-03-21T20:53:06.430Z,8.10
2023-03-21T20:55:37.264Z,6.00
2023-03-21T20:58:27.190Z,4.90
2023-03-21T21:01:00.364Z,4.70
2023-03-21T21:03:29.694Z,4.20
2023-03-21T21:06:00.293Z,3.70
2023-03-21T21:08:31.033Z,4.80
2023-03-21T21:11:56.637Z,7.50
2023-03-21T21:13:49.941Z,6.30
2023-03-21T21:16:19.457Z,13.20
2023-03-21T21:18:49.733Z,12.80
2023-03-21T21:21:18.789Z,7.40
2023-03-21T21:23:48.877Z,9.40
2023-03-21T21:26:18.081Z,19.50
2023-03-21T21:28:48.343Z,9.70
2023-03-21T21:31:19.488Z,5.30
2023-03-21T21:33:50.520Z,4.50
2023-03-21T21:36:19.586Z,6.70
2023-03-21T21:38:49.767Z,5.10
2023-03-21T21:41:21.836Z,4.40
2023-03-21T21:43:51.592Z,3.60
2023-03-21T21:46:20.855Z,3.50
2023-03-21T21:48:50.143Z,3.70
2023-03-21T21:51:26.878Z,4.40
2023-03-21T21:53:57.589Z,6.50
2023-03-21T21:56:32.880Z,7.50
2023-03-21T21:59:03.118Z,8.00
2023-03-21T22:01:39.563Z,6.30
2023-03-21T22:04:11.982Z,5.40
2023-03-21T22:06:43.376Z,54.60
2023-03-21T22:09:14.645Z,29.50
2023-03-21T22:11:44.025Z,41.80
2023-03-21T22:14:13.963Z,15.40
2023-03-21T22:16:44.867Z,8.90
2023-03-21T22:19:15.024Z,8.00
2023-03-21T22:21:45.919Z,7.80
2023-03-21T22:24:16.240Z,7.00
2023-03-21T22:26:45.912Z,5.40
2023-03-21T22:29:14.943Z,4.70
2023-03-21T22:31:44.695Z,7.20
2023-03-21T22:34:14.103Z,8.90
2023-03-21T22:36:47.517Z,5.40
2023-03-21T22:39:21.742Z,5.20
2023-03-21T22:41:50.950Z,5.00
2023-03-21T22:44:19.887Z,5.60
2023-03-21T22:46:48.753Z,5.40
2023-03-21T22:49:17.657Z,5.70
2023-03-21T22:51:46.927Z,4.50
2023-03-21T22:54:15.769Z,4.70
2023-03-21T22:56:45.964Z,5.20
2023-03-21T22:59:16.710Z,4.30
2023-03-21T23:01:46.418Z,4.30
2023-03-21T23:04:16.660Z,4.70
2023-03-21T23:06:46.673Z,5.50
2023-03-21T23:09:16.776Z,6.70
2023-03-21T23:11:49.655Z,8.40
2023-03-21T23:14:21.469Z,7.70
2023-03-21T23:17:00.411Z,7.80
2023-03-21T23:19:29.790Z,7.70
2023-03-21T23:21:59.790Z,6.30
2023-03-21T23:24:29.064Z,6.90
2023-03-21T23:26:58.455Z,10.50
2023-03-21T23:29:27.964Z,7.90
2023-03-21T23:31:57.015Z,7.10
2023-03-21T23:34:26.065Z,5.80
2023-03-21T23:36:54.839Z,5.40
2023-03-21T23:39:23.627Z,5.90
2023-03-21T23:41:52.496Z,6.20
2023-03-21T23:44:21.529Z,14.10
2023-03-21T23:46:50.253Z,10.50
2023-03-21T23:49:19.409Z,7.50
2023-03-21T23:51:48.192Z,5.20
2023-03-21T23:54:17.386Z,4.70
2023-03-21T23:56:46.348Z,4.80
2023-03-21T23:59:15.406Z,5.40
